Time;durP1;ratioP1;P1;durP2;ratioP2;P2;SDS_P1;SDS_P2;PMS_P1;PMS_P2;Temp;Humidity;BMP_temperature;BMP_pressure;BME280_temperature;BME280_humidity;BME280_pressure;Samples;Min_cycle;Max_cycle;Signal;HPM_P1;HPM_P2
2023/10/26 00:01:20;;;;;;;0.50;0.50;;;;;;;;;;5017816;28;20181;-85
2023/10/26 00:03:46;;;;;;;0.50;0.50;;;;;;;;;;5008153;28;20316;-83
2023/10/26 00:06:12;;;;;;;0.50;0.50;;;;;;;;;;4996388;28;20208;-86
2023/10/26 00:08:38;;;;;;;0.57;0.57;;;;;;;;;;4995684;28;20177;-84
2023/10/26 00:11:04;;;;;;;0.60;0.60;;;;;;;;;;5003997;28;20176;-83
2023/10/26 00:13:30;;;;;;;0.60;0.60;;;;;;;;;;5009357;28;20192;-86
2023/10/26 00:15:56;;;;;;;0.50;0.50;;;;;;;;;;5010971;28;20235;-85
2023/10/26 00:18:22;;;;;;;0.60;0.60;;;;;;;;;;4999190;28;20185;-86
2023/10/26 00:20:49;;;;;;;0.60;0.60;;;;;;;;;;4994413;28;20747;-86
2023/10/26 00:23:15;;;;;;;0.70;0.70;;;;;;;;;;4995182;28;20256;-87
2023/10/26 00:25:41;;;;;;;0.50;0.50;;;;;;;;;;4994413;28;20205;-85
2023/10/26 00:28:07;;;;;;;0.60;0.60;;;;;;;;;;4994785;28;20249;-88
2023/10/26 00:30:34;;;;;;;0.47;0.47;;;;;;;;;;4994101;28;20714;-87
2023/10/26 00:33:00;;;;;;;0.70;0.70;;;;;;;;;;4994463;28;20184;-86
2023/10/26 00:35:26;;;;;;;0.50;0.50;;;;;;;;;;4994904;28;20201;-87
2023/10/26 00:37:52;;;;;;;0.50;0.50;;;;;;;;;;4994698;28;20184;-87
2023/10/26 00:40:17;;;;;;;0.50;0.50;;;;;;;;;;4993276;28;20266;-86
2023/10/26 00:42:43;;;;;;;0.53;0.53;;;;;;;;;;4994861;28;20177;-84
2023/10/26 00:45:10;;;;;;;0.50;0.50;;;;;;;;;;4992871;28;20573;-87
2023/10/26 00:47:36;;;;;;;0.50;0.50;;;;;;;;;;4993377;28;20279;-83
2023/10/26 00:50:03;;;;;;;0.50;0.50;;;;;;;;;;4997184;28;20177;-85
2023/10/26 00:52:29;;;;;;;0.50;0.50;;;;;;;;;;4996054;28;20522;-85
2023/10/26 00:54:55;;;;;;;0.63;0.63;;;;;;;;;;4997813;28;20212;-86
2023/10/26 00:57:23;;;;;;;0.40;0.40;;;;;;;;;;5000541;28;20177;-84
2023/10/26 00:59:50;;;;;;;0.50;0.50;;;;;;;;;;4999489;28;20212;-86
2023/10/26 01:02:17;;;;;;;0.60;0.60;;;;;;;;;;4997653;28;20216;-84
2023/10/26 01:04:43;;;;;;;0.60;0.60;;;;;;;;;;4999220;28;20209;-86
2023/10/26 01:07:09;;;;;;;0.60;0.60;;;;;;;;;;4999163;28;20200;-85
2023/10/26 01:09:35;;;;;;;0.50;0.50;;;;;;;;;;5000485;28;20177;-86
2023/10/26 01:12:01;;;;;;;0.50;0.50;;;;;;;;;;5000429;28;20532;-84
2023/10/26 01:14:27;;;;;;;0.60;0.60;;;;;;;;;;5007327;28;20704;-87
2023/10/26 01:16:55;;;;;;;0.60;0.60;;;;;;;;;;5019707;28;20231;-87
2023/10/26 01:19:21;;;;;;;0.50;0.50;;;;;;;;;;5023868;28;20227;-87
2023/10/26 01:21:53;;;;;;;0.57;0.57;;;;;;;;;;5036065;28;20161;-80
2023/10/26 01:24:19;;;;;;;0.53;0.53;;;;;;;;;;5038346;28;20279;-81
2023/10/26 01:26:46;;;;;;;0.60;0.60;;;;;;;;;;5039288;28;20185;-88
2023/10/26 01:29:12;;;;;;;0.50;0.50;;;;;;;;;;5030693;28;20181;-86
2023/10/26 01:31:38;;;;;;;0.60;0.60;;;;;;;;;;5024450;28;20232;-87
2023/10/26 01:34:05;;;;;;;0.50;0.50;;;;;;;;;;5033688;28;20164;-82
2023/10/26 01:36:31;;;;;;;0.50;0.50;;;;;;;;;;5035636;28;20196;-81
2023/10/26 01:38:57;;;;;;;0.50;0.50;;;;;;;;;;5036538;28;20203;-86
2023/10/26 01:41:23;;;;;;;0.60;0.60;;;;;;;;;;5036941;28;20176;-87
2023/10/26 01:43:49;;;;;;;0.50;0.50;;;;;;;;;;5034916;28;20203;-87
2023/10/26 01:46:15;;;;;;;0.60;0.60;;;;;;;;;;5016953;28;20196;-88
2023/10/26 01:48:41;;;;;;;0.60;0.60;;;;;;;;;;5018492;28;20226;-84
2023/10/26 01:51:07;;;;;;;0.60;0.60;;;;;;;;;;5019143;28;20183;-87
2023/10/26 01:53:33;;;;;;;0.50;0.50;;;;;;;;;;5016264;28;20656;-85
2023/10/26 01:55:59;;;;;;;0.60;0.60;;;;;;;;;;5016524;28;20196;-84
2023/10/26 01:58:25;;;;;;;0.60;0.60;;;;;;;;;;5018098;28;20179;-85
2023/10/26 02:00:52;;;;;;;0.60;0.60;;;;;;;;;;5017675;28;20180;-87
2023/10/26 02:03:18;;;;;;;0.70;0.70;;;;;;;;;;5018192;28;20216;-88
2023/10/26 02:05:44;;;;;;;0.53;0.53;;;;;;;;;;5015875;28;20674;-87
2023/10/26 02:08:10;;;;;;;0.60;0.60;;;;;;;;;;5015399;28;20191;-87
2023/10/26 02:10:37;;;;;;;0.60;0.60;;;;;;;;;;5016508;28;20619;-87
2023/10/26 02:13:03;;;;;;;0.60;0.60;;;;;;;;;;5017173;28;20172;-87
2023/10/26 02:15:29;;;;;;;0.77;0.77;;;;;;;;;;5015879;28;20192;-87
2023/10/26 02:17:55;;;;;;;0.60;0.60;;;;;;;;;;5016795;28;20564;-87
2023/10/26 02:20:21;;;;;;;0.57;0.57;;;;;;;;;;5015838;28;20299;-87
2023/10/26 02:22:47;;;;;;;0.60;0.60;;;;;;;;;;5015945;28;20259;-88
2023/10/26 02:25:13;;;;;;;0.57;0.57;;;;;;;;;;5014894;28;20268;-87
2023/10/26 02:27:40;;;;;;;0.60;0.60;;;;;;;;;;5014300;28;20215;-88
2023/10/26 02:30:06;;;;;;;0.60;0.60;;;;;;;;;;5016015;28;20184;-88
2023/10/26 02:32:33;;;;;;;0.70;0.70;;;;;;;;;;5014253;28;20549;-87
2023/10/26 02:34:59;;;;;;;0.60;0.60;;;;;;;;;;5014639;28;20207;-88
2023/10/26 02:37:25;;;;;;;0.70;0.70;;;;;;;;;;5015636;28;20169;-86
2023/10/26 02:39:51;;;;;;;0.60;0.60;;;;;;;;;;5016003;28;20576;-86
2023/10/26 02:42:17;;;;;;;0.50;0.50;;;;;;;;;;5015271;28;20195;-87
2023/10/26 02:44:44;;;;;;;0.60;0.60;;;;;;;;;;5016225;28;20181;-87
2023/10/26 02:47:10;;;;;;;0.70;0.70;;;;;;;;;;5016101;28;20592;-87
2023/10/26 02:49:36;;;;;;;0.60;0.60;;;;;;;;;;5015713;28;20187;-87
2023/10/26 02:52:02;;;;;;;0.60;0.60;;;;;;;;;;5015916;28;20668;-87
2023/10/26 02:54:28;;;;;;;0.70;0.70;;;;;;;;;;5015387;28;20646;-88
2023/10/26 02:56:54;;;;;;;0.63;0.63;;;;;;;;;;5028646;28;20268;-85
2023/10/26 02:59:20;;;;;;;0.60;0.60;;;;;;;;;;5029040;28;20226;-87
2023/10/26 03:01:46;;;;;;;0.53;0.53;;;;;;;;;;5013897;28;20184;-88
2023/10/26 03:04:12;;;;;;;0.57;0.57;;;;;;;;;;5014916;28;20552;-87
2023/10/26 03:06:39;;;;;;;0.70;0.70;;;;;;;;;;5013970;28;20216;-87
2023/10/26 03:09:05;;;;;;;0.53;0.53;;;;;;;;;;5015804;28;20280;-87
2023/10/26 03:11:32;;;;;;;0.63;0.63;;;;;;;;;;5013614;28;20180;-87
2023/10/26 03:13:59;;;;;;;0.60;0.60;;;;;;;;;;5015380;28;20216;-86
2023/10/26 03:16:25;;;;;;;0.60;0.60;;;;;;;;;;5013693;28;20207;-87
2023/10/26 03:18:51;;;;;;;0.60;0.60;;;;;;;;;;5015039;28;20702;-87
2023/10/26 03:21:18;;;;;;;0.67;0.67;;;;;;;;;;5014643;28;20697;-87
2023/10/26 03:23:44;;;;;;;0.50;0.50;;;;;;;;;;5015369;28;20204;-87
2023/10/26 03:26:11;;;;;;;0.60;0.60;;;;;;;;;;5015383;28;20220;-87
2023/10/26 03:28:37;;;;;;;0.60;0.60;;;;;;;;;;5022108;28;20290;-86
2023/10/26 03:31:03;;;;;;;0.60;0.60;;;;;;;;;;5028669;28;20203;-86
2023/10/26 03:33:29;;;;;;;0.60;0.60;;;;;;;;;;5029602;28;20206;-87
2023/10/26 03:35:55;;;;;;;0.60;0.60;;;;;;;;;;5028686;28;20196;-85
2023/10/26 03:38:20;;;;;;;0.60;0.60;;;;;;;;;;5032063;28;20188;-87
2023/10/26 03:40:49;;;;;;;0.50;0.50;;;;;;;;;;5030179;28;20642;-86
2023/10/26 03:43:15;;;;;;;0.60;0.60;;;;;;;;;;5020419;28;20173;-86
2023/10/26 03:45:45;;;;;;;0.60;0.60;;;;;;;;;;5014227;28;20749;-87
2023/10/26 03:48:11;;;;;;;0.70;0.70;;;;;;;;;;5014400;28;20184;-87
2023/10/26 03:50:37;;;;;;;0.60;0.60;;;;;;;;;;5013988;28;20181;-86
2023/10/26 03:53:03;;;;;;;0.60;0.60;;;;;;;;;;5014173;28;20192;-87
2023/10/26 03:55:29;;;;;;;0.80;0.80;;;;;;;;;;5014948;28;20565;-86
2023/10/26 03:57:55;;;;;;;0.60;0.60;;;;;;;;;;5014677;28;20642;-83
2023/10/26 04:00:21;;;;;;;0.70;0.70;;;;;;;;;;5013160;28;20437;-84
2023/10/26 04:02:47;;;;;;;0.70;0.70;;;;;;;;;;5013497;28;20696;-84
2023/10/26 04:05:15;;;;;;;0.60;0.60;;;;;;;;;;5012600;28;20193;-86
2023/10/26 04:07:42;;;;;;;0.60;0.60;;;;;;;;;;5014516;28;20271;-83
2023/10/26 04:10:09;;;;;;;0.70;0.70;;;;;;;;;;5011700;28;20185;-87
2023/10/26 04:12:35;;;;;;;0.70;0.70;;;;;;;;;;5003099;28;20184;-89
2023/10/26 04:15:03;;;;;;;0.67;0.67;;;;;;;;;;5008307;28;20209;-87
2023/10/26 04:17:29;;;;;;;0.50;0.50;;;;;;;;;;5005720;28;20674;-87
2023/10/26 04:19:54;;;;;;;0.50;0.50;;;;;;;;;;5004484;28;20240;-87
2023/10/26 04:22:21;;;;;;;0.70;0.70;;;;;;;;;;5013847;28;20188;-87
2023/10/26 04:24:47;;;;;;;0.70;0.70;;;;;;;;;;5013075;28;20189;-85
2023/10/26 04:27:13;;;;;;;0.70;0.70;;;;;;;;;;5023189;28;20536;-86
2023/10/26 04:29:39;;;;;;;0.50;0.50;;;;;;;;;;5021740;28;20270;-86
2023/10/26 04:32:05;;;;;;;0.50;0.50;;;;;;;;;;5020271;28;20179;-86
2023/10/26 04:34:31;;;;;;;0.67;0.67;;;;;;;;;;5020295;28;20179;-85
2023/10/26 04:36:57;;;;;;;0.50;0.50;;;;;;;;;;5020786;28;20196;-85
2023/10/26 04:39:23;;;;;;;0.60;0.60;;;;;;;;;;5019033;28;20223;-86
2023/10/26 04:41:50;;;;;;;0.70;0.70;;;;;;;;;;5020157;28;20263;-85
2023/10/26 04:44:18;;;;;;;0.60;0.60;;;;;;;;;;5018831;28;20792;-86
2023/10/26 04:46:44;;;;;;;0.60;0.60;;;;;;;;;;5020101;28;20270;-86
2023/10/26 04:49:10;;;;;;;0.80;0.80;;;;;;;;;;5019791;28;20172;-85
2023/10/26 04:51:36;;;;;;;0.60;0.60;;;;;;;;;;5018764;28;20231;-85
2023/10/26 04:54:02;;;;;;;0.60;0.60;;;;;;;;;;5020315;28;20168;-86
2023/10/26 04:56:28;;;;;;;0.70;0.70;;;;;;;;;;5019334;28;20224;-86
2023/10/26 04:58:54;;;;;;;0.70;0.70;;;;;;;;;;5020700;28;20208;-84
2023/10/26 05:01:20;;;;;;;0.60;0.60;;;;;;;;;;5021017;28;20184;-86
2023/10/26 05:03:46;;;;;;;0.60;0.60;;;;;;;;;;5020896;28;20176;-85
2023/10/26 05:06:13;;;;;;;0.70;0.70;;;;;;;;;;5020305;28;20319;-86
2023/10/26 05:08:39;;;;;;;0.60;0.60;;;;;;;;;;5020810;28;20176;-86
2023/10/26 05:11:05;;;;;;;0.67;0.67;;;;;;;;;;5020460;28;20182;-86
2023/10/26 05:13:31;;;;;;;0.55;0.55;;;;;;;;;;5020994;28;20391;-87
2023/10/26 05:15:59;;;;;;;0.67;0.67;;;;;;;;;;5022899;28;20220;-90
2023/10/26 05:18:25;;;;;;;0.70;0.70;;;;;;;;;;5023686;28;20198;-89
2023/10/26 05:20:51;;;;;;;0.60;0.60;;;;;;;;;;5021576;28;20673;-88
2023/10/26 05:23:17;;;;;;;0.60;0.60;;;;;;;;;;5022252;28;20219;-88
2023/10/26 05:25:44;;;;;;;0.60;0.60;;;;;;;;;;5018532;28;20211;-87
2023/10/26 05:28:10;;;;;;;0.70;0.70;;;;;;;;;;5019396;28;20645;-87
2023/10/26 05:30:36;;;;;;;0.60;0.60;;;;;;;;;;5000606;28;20180;-87
2023/10/26 05:33:02;;;;;;;0.60;0.60;;;;;;;;;;4999064;28;20651;-87
2023/10/26 05:35:29;;;;;;;0.60;0.60;;;;;;;;;;5001628;28;20589;-87
2023/10/26 05:37:55;;;;;;;0.60;0.60;;;;;;;;;;5012327;28;20212;-85
2023/10/26 05:40:21;;;;;;;0.60;0.60;;;;;;;;;;5017755;28;20256;-86
2023/10/26 05:42:47;;;;;;;0.60;0.60;;;;;;;;;;5016962;28;20264;-86
2023/10/26 05:45:13;;;;;;;0.50;0.50;;;;;;;;;;5016123;28;20213;-86
2023/10/26 05:47:39;;;;;;;0.70;0.70;;;;;;;;;;4996411;28;20542;-85
2023/10/26 05:50:05;;;;;;;0.63;0.63;;;;;;;;;;4997380;28;20227;-85
2023/10/26 05:52:31;;;;;;;0.50;0.50;;;;;;;;;;4997454;28;20213;-86
2023/10/26 05:54:59;;;;;;;0.60;0.60;;;;;;;;;;4996995;28;20539;-86
2023/10/26 05:57:28;;;;;;;0.50;0.50;;;;;;;;;;5016638;28;20180;-83
2023/10/26 05:59:54;;;;;;;0.60;0.60;;;;;;;;;;5013549;28;20192;-84
2023/10/26 06:02:20;;;;;;;0.80;0.80;;;;;;;;;;5020723;28;20239;-87
2023/10/26 06:04:46;;;;;;;0.60;0.60;;;;;;;;;;5005853;28;20643;-86
2023/10/26 06:07:12;;;;;;;0.60;0.60;;;;;;;;;;5014645;28;20196;-86
2023/10/26 06:09:38;;;;;;;0.50;0.50;;;;;;;;;;5016225;28;20215;-86
2023/10/26 06:12:04;;;;;;;0.50;0.50;;;;;;;;;;5016719;28;20188;-86
2023/10/26 06:14:30;;;;;;;0.70;0.70;;;;;;;;;;5023424;28;20176;-83
2023/10/26 06:16:57;;;;;;;0.70;0.70;;;;;;;;;;5019919;28;20320;-86
2023/10/26 06:19:23;;;;;;;0.60;0.60;;;;;;;;;;5016359;28;20216;-86
2023/10/26 06:21:49;;;;;;;0.60;0.60;;;;;;;;;;5016988;28;20199;-84
2023/10/26 06:24:15;;;;;;;0.60;0.60;;;;;;;;;;5016956;28;20263;-88
2023/10/26 06:26:41;;;;;;;0.67;0.67;;;;;;;;;;5017010;28;20252;-87
2023/10/26 06:29:07;;;;;;;0.60;0.60;;;;;;;;;;5003940;28;20177;-87
2023/10/26 06:31:36;;;;;;;0.50;0.50;;;;;;;;;;5007242;28;20284;-87
2023/10/26 06:34:02;;;;;;;0.67;0.67;;;;;;;;;;5010889;28;20196;-86
2023/10/26 06:36:28;;;;;;;0.53;0.53;;;;;;;;;;5010425;28;20200;-86
2023/10/26 06:38:56;;;;;;;0.60;0.60;;;;;;;;;;5022844;28;20215;-88
2023/10/26 06:41:22;;;;;;;0.60;0.60;;;;;;;;;;5022179;28;20685;-87
2023/10/26 06:43:48;;;;;;;0.60;0.60;;;;;;;;;;5022625;28;20207;-87
2023/10/26 06:46:17;;;;;;;0.60;0.60;;;;;;;;;;5018931;28;20219;-89
2023/10/26 06:48:43;;;;;;;0.57;0.57;;;;;;;;;;5008002;28;20525;-89
2023/10/26 06:51:09;;;;;;;0.67;0.67;;;;;;;;;;5014764;28;20237;-87
2023/10/26 06:53:36;;;;;;;0.70;0.70;;;;;;;;;;5016649;28;20177;-88
2023/10/26 06:56:02;;;;;;;0.70;0.70;;;;;;;;;;5017221;28;20292;-85
2023/10/26 06:58:28;;;;;;;0.53;0.53;;;;;;;;;;5015421;28;20173;-87
2023/10/26 07:00:54;;;;;;;0.40;0.40;;;;;;;;;;5023946;28;20249;-83
2023/10/26 07:03:21;;;;;;;0.70;0.70;;;;;;;;;;5006101;28;20197;-85
2023/10/26 07:05:47;;;;;;;0.60;0.60;;;;;;;;;;4996013;28;20213;-86
2023/10/26 07:08:13;;;;;;;0.50;0.50;;;;;;;;;;4997034;28;20185;-85
2023/10/26 07:10:40;;;;;;;0.53;0.53;;;;;;;;;;5009564;28;20177;-85
2023/10/26 07:13:07;;;;;;;0.50;0.50;;;;;;;;;;5015788;28;20182;-85
2023/10/26 07:15:34;;;;;;;0.50;0.50;;;;;;;;;;5017296;28;20197;-85
2023/10/26 07:18:00;;;;;;;0.60;0.60;;;;;;;;;;5003610;28;20178;-86
2023/10/26 07:20:26;;;;;;;0.57;0.57;;;;;;;;;;4997153;28;20224;-84
2023/10/26 07:22:52;;;;;;;0.60;0.60;;;;;;;;;;4997242;28;20178;-84
2023/10/26 07:25:18;;;;;;;0.60;0.60;;;;;;;;;;4995786;28;20292;-83
2023/10/26 07:27:44;;;;;;;0.50;0.50;;;;;;;;;;4996604;28;20212;-84
2023/10/26 07:30:11;;;;;;;0.53;0.53;;;;;;;;;;5003831;28;20247;-84
2023/10/26 07:32:37;;;;;;;0.50;0.50;;;;;;;;;;5016592;28;20646;-84
2023/10/26 07:35:03;;;;;;;0.50;0.50;;;;;;;;;;5017046;28;20211;-86
2023/10/26 07:37:29;;;;;;;0.50;0.50;;;;;;;;;;5016646;28;20656;-86
2023/10/26 07:39:55;;;;;;;0.60;0.60;;;;;;;;;;5012651;28;20228;-85
2023/10/26 07:42:21;;;;;;;0.50;0.50;;;;;;;;;;5013579;28;20181;-86
2023/10/26 07:44:47;;;;;;;0.50;0.50;;;;;;;;;;5027267;28;20184;-86
2023/10/26 07:47:13;;;;;;;0.60;0.60;;;;;;;;;;5030286;28;20184;-85
2023/10/26 07:49:39;;;;;;;0.50;0.50;;;;;;;;;;5020969;28;20184;-86
2023/10/26 07:52:05;;;;;;;0.50;0.50;;;;;;;;;;5020168;28;20184;-86
2023/10/26 07:54:31;;;;;;;0.40;0.40;;;;;;;;;;5020719;28;20211;-88
2023/10/26 07:56:57;;;;;;;0.50;0.50;;;;;;;;;;5023298;28;20220;-89
2023/10/26 07:59:25;;;;;;;0.60;0.60;;;;;;;;;;5018379;28;20712;-90
2023/10/26 08:01:51;;;;;;;0.50;0.50;;;;;;;;;;5016496;28;20191;-84
2023/10/26 08:04:17;;;;;;;0.60;0.60;;;;;;;;;;5017472;28;20547;-85
2023/10/26 08:06:43;;;;;;;0.50;0.50;;;;;;;;;;5020234;28;20200;-83
2023/10/26 08:09:09;;;;;;;0.50;0.50;;;;;;;;;;5024312;28;20202;-83
2023/10/26 08:11:35;;;;;;;0.60;0.60;;;;;;;;;;5015654;28;20188;-86
2023/10/26 08:14:01;;;;;;;0.50;0.50;;;;;;;;;;5019799;28;20375;-85
2023/10/26 08:16:27;;;;;;;0.60;0.60;;;;;;;;;;5017211;28;20254;-86
2023/10/26 08:18:52;;;;;;;0.60;0.60;;;;;;;;;;5016265;28;20455;-85
2023/10/26 08:21:19;;;;;;;0.53;0.53;;;;;;;;;;5023350;28;20169;-86
2023/10/26 08:23:45;;;;;;;0.50;0.50;;;;;;;;;;5017211;28;20246;-85
2023/10/26 08:26:12;;;;;;;0.50;0.50;;;;;;;;;;5018268;28;20760;-85
2023/10/26 08:28:38;;;;;;;0.50;0.50;;;;;;;;;;5019989;28;20258;-84
2023/10/26 08:31:05;;;;;;;0.57;0.57;;;;;;;;;;5005548;28;20197;-85
2023/10/26 08:33:34;;;;;;;0.60;0.60;;;;;;;;;;4995417;28;20196;-87
2023/10/26 08:36:00;;;;;;;0.60;0.60;;;;;;;;;;4994623;28;20204;-84
2023/10/26 08:38:29;;;;;;;0.60;0.60;;;;;;;;;;4995406;28;20192;-84
2023/10/26 08:40:56;;;;;;;0.50;0.50;;;;;;;;;;4997586;28;20364;-86
2023/10/26 08:43:23;;;;;;;0.53;0.53;;;;;;;;;;5001838;28;20207;-85
2023/10/26 08:45:49;;;;;;;0.50;0.50;;;;;;;;;;5013500;28;20755;-85
2023/10/26 08:48:16;;;;;;;0.53;0.53;;;;;;;;;;5015673;28;20176;-83
2023/10/26 08:50:42;;;;;;;0.50;0.50;;;;;;;;;;5015649;28;20200;-83
2023/10/26 08:53:09;;;;;;;0.50;0.50;;;;;;;;;;5009062;28;20184;-85
2023/10/26 08:55:39;;;;;;;0.50;0.50;;;;;;;;;;5020008;28;20568;-85
2023/10/26 08:58:05;;;;;;;0.60;0.60;;;;;;;;;;5019817;28;20204;-86
2023/10/26 09:00:31;;;;;;;0.50;0.50;;;;;;;;;;5020579;28;20212;-84
2023/10/26 09:02:58;;;;;;;0.60;0.60;;;;;;;;;;5020308;28;20200;-85
2023/10/26 09:05:25;;;;;;;0.50;0.50;;;;;;;;;;5007695;28;20201;-85
2023/10/26 09:07:51;;;;;;;0.57;0.57;;;;;;;;;;5019747;28;20184;-83
2023/10/26 09:10:29;;;;;;;0.50;0.50;;;;;;;;;;5017945;28;20211;-86
2023/10/26 09:13:03;;;;;;;0.50;0.50;;;;;;;;;;5000925;28;20176;-86
2023/10/26 09:15:29;;;;;;;0.40;0.40;;;;;;;;;;5017212;28;20263;-87
2023/10/26 09:17:57;;;;;;;0.50;0.50;;;;;;;;;;5033356;28;20180;-87
2023/10/26 09:20:24;;;;;;;0.50;0.50;;;;;;;;;;5036888;28;20219;-84
2023/10/26 09:22:50;;;;;;;0.60;0.60;;;;;;;;;;5029450;28;20212;-85
2023/10/26 09:25:16;;;;;;;0.40;0.40;;;;;;;;;;5033511;28;20227;-82
2023/10/26 09:27:42;;;;;;;0.50;0.50;;;;;;;;;;5038665;28;20252;-85
2023/10/26 09:30:28;;;;;;;0.50;0.50;;;;;;;;;;5039670;28;20192;-83
2023/10/26 09:32:54;;;;;;;0.50;0.50;;;;;;;;;;5038269;28;20198;-84
2023/10/26 09:35:27;;;;;;;0.60;0.60;;;;;;;;;;5027138;28;20212;-83
2023/10/26 09:37:53;;;;;;;0.50;0.50;;;;;;;;;;5028205;28;20177;-84
2023/10/26 09:40:22;;;;;;;0.50;0.50;;;;;;;;;;5011887;28;20205;-86
2023/10/26 09:42:49;;;;;;;0.43;0.43;;;;;;;;;;5006076;28;20184;-86
2023/10/26 09:45:16;;;;;;;0.50;0.50;;;;;;;;;;5008594;28;20205;-86
2023/10/26 09:47:43;;;;;;;0.57;0.57;;;;;;;;;;5013011;28;20239;-85
2023/10/26 09:50:10;;;;;;;0.40;0.40;;;;;;;;;;5014613;28;20563;-86
2023/10/26 09:52:37;;;;;;;0.43;0.43;;;;;;;;;;5016046;28;20239;-86
2023/10/26 09:55:04;;;;;;;0.50;0.50;;;;;;;;;;5016692;28;20752;-87
2023/10/26 09:57:45;;;;;;;0.50;0.50;;;;;;;;;;5017492;28;20223;-84
2023/10/26 10:00:13;;;;;;;0.40;0.40;;;;;;;;;;5017922;28;20647;-86
2023/10/26 10:02:41;;;;;;;0.50;0.50;;;;;;;;;;5009990;28;20188;-85
2023/10/26 10:05:28;;;;;;;0.60;0.60;;;;;;;;;;5011737;28;20196;-84
2023/10/26 10:07:55;;;;;;;0.60;0.60;;;;;;;;;;5017574;28;20200;-86
2023/10/26 10:10:21;;;;;;;0.50;0.50;;;;;;;;;;5026340;28;20739;-85
2023/10/26 10:12:52;;;;;;;0.50;0.50;;;;;;;;;;5016631;28;20520;-83
2023/10/26 10:15:32;;;;;;;0.40;0.40;;;;;;;;;;5014093;28;20203;-85
2023/10/26 10:17:58;;;;;;;0.40;0.40;;;;;;;;;;5016228;28;20533;-85
2023/10/26 10:20:24;;;;;;;0.43;0.43;;;;;;;;;;5026137;28;20212;-84
2023/10/26 10:22:53;;;;;;;0.50;0.50;;;;;;;;;;5018499;28;20189;-84
2023/10/26 10:25:19;;;;;;;0.40;0.40;;;;;;;;;;5016894;28;20200;-87
2023/10/26 10:27:48;;;;;;;0.50;0.50;;;;;;;;;;5014714;28;20556;-84
2023/10/26 10:30:16;;;;;;;0.50;0.50;;;;;;;;;;5016168;28;20191;-82
2023/10/26 10:32:48;;;;;;;0.50;0.50;;;;;;;;;;5017118;28;20180;-84
2023/10/26 10:35:28;;;;;;;0.60;0.60;;;;;;;;;;5017399;28;20193;-86
2023/10/26 10:38:18;;;;;;;0.40;0.40;;;;;;;;;;5001780;28;20177;-87
2023/10/26 10:40:59;;;;;;;0.50;0.50;;;;;;;;;;5007245;28;20211;-90
2023/10/26 10:43:31;;;;;;;0.60;0.60;;;;;;;;;;5001209;28;20177;-88
2023/10/26 10:45:57;;;;;;;0.50;0.50;;;;;;;;;;5016689;28;20188;-88
2023/10/26 10:48:24;;;;;;;0.40;0.40;;;;;;;;;;5016751;28;20191;-86
2023/10/26 10:50:51;;;;;;;0.50;0.50;;;;;;;;;;5016955;28;20176;-85
2023/10/26 10:53:17;;;;;;;0.50;0.50;;;;;;;;;;5017129;28;20180;-85
2023/10/26 10:55:44;;;;;;;0.50;0.50;;;;;;;;;;5016315;28;20224;-88
2023/10/26 10:58:10;;;;;;;0.40;0.40;;;;;;;;;;5018114;28;20708;-85
2023/10/26 11:00:44;;;;;;;0.40;0.40;;;;;;;;;;5028270;28;20204;-85
2023/10/26 11:03:17;;;;;;;0.43;0.43;;;;;;;;;;5031423;28;20203;-84
2023/10/26 11:05:43;;;;;;;0.50;0.50;;;;;;;;;;5029106;28;20224;-86
2023/10/26 11:08:09;;;;;;;0.47;0.47;;;;;;;;;;5027409;28;20192;-86
2023/10/26 11:10:36;;;;;;;0.47;0.47;;;;;;;;;;5023129;28;20682;-89
2023/10/26 11:13:02;;;;;;;0.50;0.50;;;;;;;;;;5035115;28;20185;-85
2023/10/26 11:15:32;;;;;;;0.50;0.50;;;;;;;;;;5035399;28;20185;-84
2023/10/26 11:17:59;;;;;;;0.40;0.40;;;;;;;;;;5027706;28;20165;-87
2023/10/26 11:20:36;;;;;;;0.50;0.50;;;;;;;;;;5025626;28;20216;-85
2023/10/26 11:23:02;;;;;;;0.40;0.40;;;;;;;;;;5013009;28;20192;-88
2023/10/26 11:25:28;;;;;;;0.50;0.50;;;;;;;;;;4996303;28;20495;-90
2023/10/26 11:27:55;;;;;;;0.50;0.50;;;;;;;;;;4997281;28;20631;-89
2023/10/26 11:30:23;;;;;;;0.50;0.50;;;;;;;;;;4997171;28;20195;-89
2023/10/26 11:32:49;;;;;;;0.50;0.50;;;;;;;;;;4997205;28;20243;-90
2023/10/26 11:35:16;;;;;;;0.60;0.60;;;;;;;;;;4997834;28;20662;-89
2023/10/26 11:37:42;;;;;;;0.47;0.47;;;;;;;;;;4999355;28;20191;-89
2023/10/26 11:40:10;;;;;;;0.40;0.40;;;;;;;;;;4999741;28;20205;-88
2023/10/26 11:42:52;;;;;;;0.60;0.60;;;;;;;;;;5016047;28;20222;-88
2023/10/26 11:45:20;;;;;;;0.60;0.60;;;;;;;;;;5018084;28;20193;-91
2023/10/26 11:47:54;;;;;;;0.47;0.47;;;;;;;;;;5011594;28;20318;-89
2023/10/26 11:50:25;;;;;;;0.50;0.50;;;;;;;;;;5010484;28;20192;-87
2023/10/26 11:52:52;;;;;;;0.50;0.50;;;;;;;;;;5021480;28;20633;-88
2023/10/26 11:55:18;;;;;;;0.50;0.50;;;;;;;;;;5021459;28;20192;-89
2023/10/26 11:57:45;;;;;;;0.40;0.40;;;;;;;;;;5029228;28;20410;-89
2023/10/26 12:00:11;;;;;;;0.50;0.50;;;;;;;;;;5027856;28;20807;-90
2023/10/26 12:02:37;;;;;;;0.40;0.40;;;;;;;;;;5017852;28;20212;-90
2023/10/26 12:05:04;;;;;;;0.53;0.53;;;;;;;;;;5017657;28;20204;-89
2023/10/26 12:07:30;;;;;;;0.60;0.60;;;;;;;;;;5003711;28;20704;-84
2023/10/26 12:09:56;;;;;;;0.50;0.50;;;;;;;;;;5000139;28;20188;-85
2023/10/26 12:12:22;;;;;;;0.40;0.40;;;;;;;;;;5008409;28;20184;-90
2023/10/26 12:14:48;;;;;;;0.40;0.40;;;;;;;;;;5030947;28;20642;-87
2023/10/26 12:17:14;;;;;;;0.40;0.40;;;;;;;;;;5020174;28;20173;-88
2023/10/26 12:19:40;;;;;;;0.40;0.40;;;;;;;;;;5021021;28;20212;-86
2023/10/26 12:22:06;;;;;;;0.30;0.30;;;;;;;;;;5019001;28;20307;-84
2023/10/26 12:24:32;;;;;;;0.40;0.40;;;;;;;;;;5016273;28;20191;-87
2023/10/26 12:26:59;;;;;;;0.40;0.40;;;;;;;;;;5016254;28;20188;-86
2023/10/26 12:29:25;;;;;;;0.30;0.30;;;;;;;;;;5017439;28;20172;-87
2023/10/26 12:31:51;;;;;;;0.43;0.43;;;;;;;;;;5017260;28;20665;-84
2023/10/26 12:34:19;;;;;;;0.40;0.40;;;;;;;;;;5019452;28;20173;-91
2023/10/26 12:36:45;;;;;;;0.40;0.40;;;;;;;;;;5012700;28;20193;-87
2023/10/26 12:39:11;;;;;;;0.40;0.40;;;;;;;;;;4997579;28;20209;-86
2023/10/26 12:41:37;;;;;;;0.57;0.57;;;;;;;;;;5006068;28;20265;-83
2023/10/26 12:44:03;;;;;;;0.30;0.30;;;;;;;;;;5014687;28;20184;-84
2023/10/26 12:46:29;;;;;;;0.40;0.40;;;;;;;;;;5011716;28;20197;-86
2023/10/26 12:48:55;;;;;;;0.40;0.40;;;;;;;;;;4997422;28;20188;-86
2023/10/26 12:51:21;;;;;;;0.30;0.30;;;;;;;;;;4998297;28;20242;-84
2023/10/26 12:53:47;;;;;;;0.40;0.40;;;;;;;;;;4999622;28;20182;-90
2023/10/26 12:56:13;;;;;;;0.40;0.40;;;;;;;;;;4999866;28;20211;-86
2023/10/26 12:58:39;;;;;;;0.40;0.40;;;;;;;;;;5000427;28;20235;-86
2023/10/26 13:01:05;;;;;;;0.40;0.40;;;;;;;;;;4999755;28;20216;-84
2023/10/26 13:03:31;;;;;;;0.50;0.50;;;;;;;;;;5000688;28;20188;-83
2023/10/26 13:05:57;;;;;;;0.30;0.30;;;;;;;;;;4999685;28;20197;-85
2023/10/26 13:08:23;;;;;;;0.40;0.40;;;;;;;;;;5000876;28;20192;-85
2023/10/26 13:10:50;;;;;;;0.30;0.30;;;;;;;;;;4999434;28;20231;-84
2023/10/26 13:13:16;;;;;;;0.30;0.30;;;;;;;;;;5002484;28;20556;-84
2023/10/26 13:15:42;;;;;;;0.30;0.30;;;;;;;;;;4999063;28;20201;-85
2023/10/26 13:18:08;;;;;;;0.30;0.30;;;;;;;;;;5012508;28;20185;-85
2023/10/26 13:20:35;;;;;;;0.50;0.50;;;;;;;;;;5017066;28;20213;-84
2023/10/26 13:23:01;;;;;;;0.40;0.40;;;;;;;;;;5009682;28;20201;-85
2023/10/26 13:25:27;;;;;;;0.30;0.30;;;;;;;;;;4999938;28;20189;-87
2023/10/26 13:27:54;;;;;;;0.47;0.47;;;;;;;;;;5000284;28;20260;-86
2023/10/26 13:30:20;;;;;;;0.30;0.30;;;;;;;;;;5000452;28;20239;-84
2023/10/26 13:32:46;;;;;;;0.50;0.50;;;;;;;;;;5000838;28;20689;-84
2023/10/26 13:35:12;;;;;;;0.40;0.40;;;;;;;;;;5014865;28;20209;-81
2023/10/26 13:37:38;;;;;;;0.40;0.40;;;;;;;;;;5002641;28;20207;-86
2023/10/26 13:40:05;;;;;;;0.40;0.40;;;;;;;;;;4998596;28;20596;-84
2023/10/26 13:42:31;;;;;;;0.33;0.33;;;;;;;;;;5001426;28;20165;-83
2023/10/26 13:44:57;;;;;;;0.40;0.40;;;;;;;;;;4999234;28;20201;-83
2023/10/26 13:47:24;;;;;;;0.40;0.40;;;;;;;;;;4998928;28;20235;-83
2023/10/26 13:49:49;;;;;;;0.50;0.50;;;;;;;;;;4998165;28;20251;-84
2023/10/26 13:52:17;;;;;;;0.40;0.40;;;;;;;;;;5000480;28;20181;-85
2023/10/26 13:54:43;;;;;;;0.40;0.40;;;;;;;;;;5000011;28;20180;-84
2023/10/26 13:57:09;;;;;;;0.43;0.43;;;;;;;;;;5002962;28;20177;-84
2023/10/26 13:59:37;;;;;;;0.40;0.40;;;;;;;;;;5007253;28;20267;-84
2023/10/26 14:02:09;;;;;;;0.50;0.50;;;;;;;;;;5012281;28;20165;-82
2023/10/26 14:04:35;;;;;;;0.40;0.40;;;;;;;;;;5018265;28;20181;-83
2023/10/26 14:07:01;;;;;;;0.40;0.40;;;;;;;;;;5004893;28;20208;-82
2023/10/26 14:09:30;;;;;;;0.40;0.40;;;;;;;;;;5011287;28;20181;-83
2023/10/26 14:12:01;;;;;;;0.50;0.50;;;;;;;;;;5007614;28;20181;-83
2023/10/26 14:14:29;;;;;;;0.50;0.50;;;;;;;;;;5005747;28;20185;-84
2023/10/26 14:16:55;;;;;;;0.40;0.40;;;;;;;;;;5011166;28;20224;-84
2023/10/26 14:19:22;;;;;;;0.50;0.50;;;;;;;;;;5010681;28;20217;-84
2023/10/26 14:21:48;;;;;;;0.40;0.40;;;;;;;;;;5009237;28;20185;-85
2023/10/26 14:24:14;;;;;;;0.50;0.50;;;;;;;;;;4999754;28;20195;-83
2023/10/26 14:26:41;;;;;;;0.50;0.50;;;;;;;;;;5002320;28;20197;-82
2023/10/26 14:29:07;;;;;;;0.50;0.50;;;;;;;;;;5004016;28;20418;-83
2023/10/26 14:31:33;;;;;;;0.50;0.50;;;;;;;;;;5006101;28;20229;-84
2023/10/26 14:34:00;;;;;;;0.50;0.50;;;;;;;;;;4999559;28;20185;-85
2023/10/26 14:36:26;;;;;;;0.50;0.50;;;;;;;;;;4998696;28;20189;-85
2023/10/26 14:38:52;;;;;;;0.50;0.50;;;;;;;;;;5006499;28;20356;-84
2023/10/26 14:41:23;;;;;;;0.50;0.50;;;;;;;;;;5009021;28;20181;-86